sensor_id;sensor_type;location;lat;lon;timestamp;pressure;altitude;pressure_sealevel;temperature;humidity
50590;BME280;36547;50.514;30.840;2023-06-05T00:00:40;100805.11;;;12.65;56.77
50590;BME280;36547;50.514;30.840;2023-06-05T00:01:43;100816.06;;;12.59;57.25
50590;BME280;36547;50.514;30.840;2023-06-05T00:02:46;100816.86;;;12.61;57.48
50590;BME280;36547;50.514;30.840;2023-06-05T00:03:48;100816.21;;;12.56;57.33
50590;BME280;36547;50.514;30.840;2023-06-05T00:04:51;100812.61;;;12.57;57.49
50590;BME280;36547;50.514;30.840;2023-06-05T00:05:53;100809.00;;;12.58;57.82
50590;BME280;36547;50.514;30.840;2023-06-05T00:06:56;100814.27;;;12.60;57.72
50590;BME280;36547;50.514;30.840;2023-06-05T00:07:58;100817.94;;;12.57;58.11
50590;BME280;36547;50.514;30.840;2023-06-05T00:09:00;100818.12;;;12.54;58.01
50590;BME280;36547;50.514;30.840;2023-06-05T00:10:05;100812.93;;;12.51;58.03
50590;BME280;36547;50.514;30.840;2023-06-05T00:11:08;100810.41;;;12.48;57.94
50590;BME280;36547;50.514;30.840;2023-06-05T00:12:10;100814.01;;;12.47;58.05
50590;BME280;36547;50.514;30.840;2023-06-05T00:13:13;100812.28;;;12.46;57.75
50590;BME280;36547;50.514;30.840;2023-06-05T00:14:16;100814.95;;;12.46;57.78
50590;BME280;36547;50.514;30.840;2023-06-05T00:15:20;100805.29;;;12.44;57.87
50590;BME280;36547;50.514;30.840;2023-06-05T00:16:23;100809.61;;;12.46;58.06
50590;BME280;36547;50.514;30.840;2023-06-05T00:17:25;100811.34;;;12.47;58.05
50590;BME280;36547;50.514;30.840;2023-06-05T00:18:27;100810.70;;;12.42;58.86
50590;BME280;36547;50.514;30.840;2023-06-05T00:19:30;100816.27;;;12.37;59.55
50590;BME280;36547;50.514;30.840;2023-06-05T00:20:32;100804.74;;;12.37;59.38
50590;BME280;36547;50.514;30.840;2023-06-05T00:21:34;100805.68;;;12.36;59.21
50590;BME280;36547;50.514;30.840;2023-06-05T00:22:37;100811.80;;;12.38;59.15
50590;BME280;36547;50.514;30.840;2023-06-05T00:23:40;100812.95;;;12.32;59.65
50590;BME280;36547;50.514;30.840;2023-06-05T00:24:42;100811.95;;;12.35;59.45
50590;BME280;36547;50.514;30.840;2023-06-05T00:25:44;100812.67;;;12.38;59.51
50590;BME280;36547;50.514;30.840;2023-06-05T00:26:47;100806.30;;;12.41;59.40
50590;BME280;36547;50.514;30.840;2023-06-05T00:27:49;100808.03;;;12.42;59.19
50590;BME280;36547;50.514;30.840;2023-06-05T00:28:51;100808.89;;;12.43;59.18
50590;BME280;36547;50.514;30.840;2023-06-05T00:29:54;100800.97;;;12.41;59.51
50590;BME280;36547;50.514;30.840;2023-06-05T00:30:56;100814.80;;;12.49;59.25
50590;BME280;36547;50.514;30.840;2023-06-05T00:32:01;100805.14;;;12.47;59.67
50590;BME280;36547;50.514;30.840;2023-06-05T00:33:03;100798.95;;;12.46;60.00
50590;BME280;36547;50.514;30.840;2023-06-05T00:34:06;100804.42;;;12.43;59.55
50590;BME280;36547;50.514;30.840;2023-06-05T00:35:08;100803.48;;;12.44;59.35
50590;BME280;36547;50.514;30.840;2023-06-05T00:36:12;100800.83;;;12.44;59.31
50590;BME280;36547;50.514;30.840;2023-06-05T00:37:15;100806.55;;;12.36;60.17
50590;BME280;36547;50.514;30.840;2023-06-05T00:38:19;100805.02;;;12.31;59.88
50590;BME280;36547;50.514;30.840;2023-06-05T00:39:21;100799.55;;;12.34;59.54
50590;BME280;36547;50.514;30.840;2023-06-05T00:40:23;100797.69;;;12.36;58.95
50590;BME280;36547;50.514;30.840;2023-06-05T00:41:26;100799.55;;;12.34;59.04
50590;BME280;36547;50.514;30.840;2023-06-05T00:42:28;100808.62;;;12.30;59.25
50590;BME280;36547;50.514;30.840;2023-06-05T00:43:30;100805.23;;;12.26;59.41
50590;BME280;36547;50.514;30.840;2023-06-05T00:44:34;100803.44;;;12.27;59.81
50590;BME280;36547;50.514;30.840;2023-06-05T00:45:36;100805.34;;;12.25;59.90
50590;BME280;36547;50.514;30.840;2023-06-05T00:46:39;100799.08;;;12.26;59.91
50590;BME280;36547;50.514;30.840;2023-06-05T00:47:41;100809.63;;;12.27;59.65
50590;BME280;36547;50.514;30.840;2023-06-05T00:48:43;100807.08;;;12.26;60.00
50590;BME280;36547;50.514;30.840;2023-06-05T00:49:47;100809.56;;;12.29;60.01
50590;BME280;36547;50.514;30.840;2023-06-05T00:50:50;100806.89;;;12.29;59.94
50590;BME280;36547;50.514;30.840;2023-06-05T00:51:52;100803.44;;;12.27;59.61
50590;BME280;36547;50.514;30.840;2023-06-05T00:52:55;100807.77;;;12.29;59.77
50590;BME280;36547;50.514;30.840;2023-06-05T00:53:57;100804.95;;;12.32;59.71
50590;BME280;36547;50.514;30.840;2023-06-05T00:55:01;100804.74;;;12.37;59.44
50590;BME280;36547;50.514;30.840;2023-06-05T00:56:05;100803.95;;;12.35;59.68
50590;BME280;36547;50.514;30.840;2023-06-05T00:57:08;100812.09;;;12.32;59.91
50590;BME280;36547;50.514;30.840;2023-06-05T00:58:11;100804.23;;;12.29;59.38
50590;BME280;36547;50.514;30.840;2023-06-05T00:59:13;100806.10;;;12.27;59.47
50590;BME280;36547;50.514;30.840;2023-06-05T01:00:17;100800.88;;;12.25;58.76
50590;BME280;36547;50.514;30.840;2023-06-05T01:01:20;100804.41;;;12.26;58.53
50590;BME280;36547;50.514;30.840;2023-06-05T01:02:22;100808.94;;;12.24;58.04
50590;BME280;36547;50.514;30.840;2023-06-05T01:03:25;100797.56;;;12.20;58.71
50590;BME280;36547;50.514;30.840;2023-06-05T01:04:29;100810.30;;;12.14;59.25
50590;BME280;36547;50.514;30.840;2023-06-05T01:05:38;100801.09;;;12.21;57.98
50590;BME280;36547;50.514;30.840;2023-06-05T01:06:40;100799.87;;;11.90;59.63
50590;BME280;36547;50.514;30.840;2023-06-05T01:07:42;100799.59;;;11.96;60.00
50590;BME280;36547;50.514;30.840;2023-06-05T01:08:45;100800.22;;;12.01;59.60
50590;BME280;36547;50.514;30.840;2023-06-05T01:09:48;100802.89;;;12.01;59.58
50590;BME280;36547;50.514;30.840;2023-06-05T01:10:52;100788.95;;;11.96;59.51
50590;BME280;36547;50.514;30.840;2023-06-05T01:12:05;100794.41;;;11.93;59.09
50590;BME280;36547;50.514;30.840;2023-06-05T01:14:30;100799.16;;;12.06;59.19
50590;BME280;36547;50.514;30.840;2023-06-05T01:15:34;100800.45;;;11.78;59.62
50590;BME280;36547;50.514;30.840;2023-06-05T01:17:43;100794.69;;;11.87;60.10
50590;BME280;36547;50.514;30.840;2023-06-05T01:18:46;100796.05;;;11.77;60.11
50590;BME280;36547;50.514;30.840;2023-06-05T01:19:50;100798.58;;;11.80;59.95
50590;BME280;36547;50.514;30.840;2023-06-05T01:20:53;100794.19;;;11.79;59.83
50590;BME280;36547;50.514;30.840;2023-06-05T01:21:56;100795.85;;;11.82;59.83
50590;BME280;36547;50.514;30.840;2023-06-05T01:22:58;100789.66;;;11.81;59.94
50590;BME280;36547;50.514;30.840;2023-06-05T01:24:01;100793.95;;;11.84;59.83
50590;BME280;36547;50.514;30.840;2023-06-05T01:25:07;100794.69;;;11.87;60.22
50590;BME280;36547;50.514;30.840;2023-06-05T01:26:17;100788.42;;;11.88;60.38
50590;BME280;36547;50.514;30.840;2023-06-05T01:27:25;100791.16;;;11.87;60.25
50590;BME280;36547;50.514;30.840;2023-06-05T01:28:30;100790.29;;;11.86;60.15
50590;BME280;36547;50.514;30.840;2023-06-05T01:31:07;100790.53;;;11.82;59.81
50590;BME280;36547;50.514;30.840;2023-06-05T01:32:15;100790.73;;;11.77;59.98
50590;BME280;36547;50.514;30.840;2023-06-05T01:34:34;100789.28;;;11.89;60.24
50590;BME280;36547;50.514;30.840;2023-06-05T01:35:40;100784.84;;;11.69;60.59
50590;BME280;36547;50.514;30.840;2023-06-05T01:36:43;100782.84;;;11.74;60.57
50590;BME280;36547;50.514;30.840;2023-06-05T01:37:48;100788.30;;;11.71;60.89
50590;BME280;36547;50.514;30.840;2023-06-05T01:38:51;100787.50;;;11.69;60.74
50590;BME280;36547;50.514;30.840;2023-06-05T01:39:57;100788.38;;;11.69;60.78
50590;BME280;36547;50.514;30.840;2023-06-05T01:41:02;100789.47;;;11.65;60.56
50590;BME280;36547;50.514;30.840;2023-06-05T01:42:06;100782.34;;;11.66;60.67
50590;BME280;36547;50.514;30.840;2023-06-05T01:43:10;100785.28;;;11.60;60.46
50590;BME280;36547;50.514;30.840;2023-06-05T01:44:14;100781.95;;;11.55;60.44
50590;BME280;36547;50.514;30.840;2023-06-05T01:45:17;100789.73;;;11.59;60.35
50590;BME280;36547;50.514;30.840;2023-06-05T01:46:21;100787.20;;;11.56;60.16
50590;BME280;36547;50.514;30.840;2023-06-05T01:47:24;100787.44;;;11.52;60.24
50590;BME280;36547;50.514;30.840;2023-06-05T01:48:27;100785.97;;;11.45;60.55
50590;BME280;36547;50.514;30.840;2023-06-05T01:49:30;100792.23;;;11.44;60.98
50590;BME280;36547;50.514;30.840;2023-06-05T01:50:34;100787.84;;;11.43;60.71
50590;BME280;36547;50.514;30.840;2023-06-05T01:51:36;100789.44;;;11.47;60.72
50590;BME280;36547;50.514;30.840;2023-06-05T01:52:40;100788.63;;;11.45;61.23
50590;BME280;36547;50.514;30.840;2023-06-05T01:53:43;100793.39;;;11.38;60.93
50590;BME280;36547;50.514;30.840;2023-06-05T01:54:45;100793.39;;;11.38;61.01
50590;BME280;36547;50.514;30.840;2023-06-05T01:55:48;100792.78;;;11.31;61.31
50590;BME280;36547;50.514;30.840;2023-06-05T01:56:51;100790.98;;;11.32;61.34
50590;BME280;36547;50.514;30.840;2023-06-05T01:57:54;100789.06;;;11.36;61.36
50590;BME280;36547;50.514;30.840;2023-06-05T01:58:56;100786.27;;;11.39;61.49
50590;BME280;36547;50.514;30.840;2023-06-05T01:59:59;100789.99;;;11.34;61.54
50590;BME280;36547;50.514;30.840;2023-06-05T02:01:01;100784.80;;;11.31;61.31
50590;BME280;36547;50.514;30.840;2023-06-05T02:02:03;100787.46;;;11.31;61.30
50590;BME280;36547;50.514;30.840;2023-06-05T02:03:06;100787.39;;;11.33;61.54
50590;BME280;36547;50.514;30.840;2023-06-05T02:04:09;100787.52;;;11.30;61.40
50590;BME280;36547;50.514;30.840;2023-06-05T02:05:15;100783.36;;;11.24;61.11
50590;BME280;36547;50.514;30.840;2023-06-05T02:06:18;100779.73;;;11.25;61.42
50590;BME280;36547;50.514;30.840;2023-06-05T02:07:20;100780.03;;;11.19;61.56
50590;BME280;36547;50.514;30.840;2023-06-05T02:08:23;100780.83;;;11.21;61.68
50590;BME280;36547;50.514;30.840;2023-06-05T02:09:25;100786.95;;;11.23;61.73
50590;BME280;36547;50.514;30.840;2023-06-05T02:10:28;100779.90;;;11.22;61.35
50590;BME280;36547;50.514;30.840;2023-06-05T02:11:30;100788.81;;;11.21;61.27
50590;BME280;36547;50.514;30.840;2023-06-05T02:12:33;100787.20;;;11.17;61.60
50590;BME280;36547;50.514;30.840;2023-06-05T02:13:37;100791.66;;;11.17;61.49
50590;BME280;36547;50.514;30.840;2023-06-05T02:14:39;100785.34;;;11.19;61.07
50590;BME280;36547;50.514;30.840;2023-06-05T02:15:42;100789.06;;;11.15;61.73
50590;BME280;36547;50.514;30.840;2023-06-05T02:16:45;100778.55;;;11.12;61.53
50590;BME280;36547;50.514;30.840;2023-06-05T02:17:48;100784.03;;;11.09;61.82
50590;BME280;36547;50.514;30.840;2023-06-05T02:18:50;100785.95;;;11.06;61.69
50590;BME280;36547;50.514;30.840;2023-06-05T02:19:53;100779.64;;;11.08;61.87
50590;BME280;36547;50.514;30.840;2023-06-05T02:20:55;100782.43;;;11.05;62.15
50590;BME280;36547;50.514;30.840;2023-06-05T02:21:58;100782.43;;;11.05;62.28
50590;BME280;36547;50.514;30.840;2023-06-05T02:23:00;100779.83;;;11.04;61.67
50590;BME280;36547;50.514;30.840;2023-06-05T02:24:04;100783.17;;;11.09;62.10
50590;BME280;36547;50.514;30.840;2023-06-05T02:25:07;100775.98;;;11.11;61.81
50590;BME280;36547;50.514;30.840;2023-06-05T02:26:10;100781.31;;;11.11;62.21
50590;BME280;36547;50.514;30.840;2023-06-05T02:27:13;100779.42;;;11.13;62.02
50590;BME280;36547;50.514;30.840;2023-06-05T02:28:15;100789.35;;;11.09;62.04
50590;BME280;36547;50.514;30.840;2023-06-05T02:29:18;100778.71;;;11.09;61.86
50590;BME280;36547;50.514;30.840;2023-06-05T02:30:21;100782.30;;;11.08;62.22
50590;BME280;36547;50.514;30.840;2023-06-05T02:31:24;100780.44;;;11.10;62.09
50590;BME280;36547;50.514;30.840;2023-06-05T02:32:28;100783.10;;;11.10;62.24
50590;BME280;36547;50.514;30.840;2023-06-05T02:33:31;100778.84;;;11.06;62.26
50590;BME280;36547;50.514;30.840;2023-06-05T02:34:33;100784.89;;;11.10;62.46
50590;BME280;36547;50.514;30.840;2023-06-05T02:35:36;100781.31;;;11.11;62.31
50590;BME280;36547;50.514;30.840;2023-06-05T02:36:38;100782.94;;;11.13;62.19
50590;BME280;36547;50.514;30.840;2023-06-05T02:37:41;100786.34;;;11.17;62.26
50590;BME280;36547;50.514;30.840;2023-06-05T02:38:44;100780.28;;;11.13;62.30
50590;BME280;36547;50.514;30.840;2023-06-05T02:39:46;100784.41;;;11.20;62.54
50590;BME280;36547;50.514;30.840;2023-06-05T02:40:48;100787.08;;;11.20;62.74
50590;BME280;36547;50.514;30.840;2023-06-05T02:41:51;100787.95;;;11.21;62.87
50590;BME280;36547;50.514;30.840;2023-06-05T02:42:54;100781.69;;;11.22;62.64
50590;BME280;36547;50.514;30.840;2023-06-05T02:43:57;100785.28;;;11.21;62.75
50590;BME280;36547;50.514;30.840;2023-06-05T02:44:59;100783.36;;;11.24;62.36
50590;BME280;36547;50.514;30.840;2023-06-05T02:46:02;100780.60;;;11.26;62.70
50590;BME280;36547;50.514;30.840;2023-06-05T02:47:05;100783.20;;;11.27;62.92
50590;BME280;36547;50.514;30.840;2023-06-05T02:48:08;100782.14;;;11.31;62.41
50590;BME280;36547;50.514;30.840;2023-06-05T02:49:10;100780.28;;;11.33;62.60
50590;BME280;36547;50.514;30.840;2023-06-05T02:50:13;100782.81;;;11.37;62.29
50590;BME280;36547;50.514;30.840;2023-06-05T02:51:17;100783.73;;;11.36;62.41
50590;BME280;36547;50.514;30.840;2023-06-05T02:52:21;100778.28;;;11.39;61.64
50590;BME280;36547;50.514;30.840;2023-06-05T02:53:23;100787.84;;;11.43;61.88
50590;BME280;36547;50.514;30.840;2023-06-05T02:54:27;100785.91;;;11.46;61.43
50590;BME280;36547;50.514;30.840;2023-06-05T02:55:29;100782.25;;;11.49;61.54
50590;BME280;36547;50.514;30.840;2023-06-05T02:56:31;100792.89;;;11.49;62.59
50590;BME280;36547;50.514;30.840;2023-06-05T02:57:34;100785.58;;;11.54;62.68
50590;BME280;36547;50.514;30.840;2023-06-05T02:58:37;100780.95;;;11.57;62.20
50590;BME280;36547;50.514;30.840;2023-06-05T02:59:39;100787.01;;;11.61;61.33
50590;BME280;36547;50.514;30.840;2023-06-05T03:00:44;100781.55;;;11.64;61.91
50590;BME280;36547;50.514;30.840;2023-06-05T03:01:46;100776.30;;;11.62;62.78
50590;BME280;36547;50.514;30.840;2023-06-05T03:02:49;100778.89;;;11.64;62.70
50590;BME280;36547;50.514;30.840;2023-06-05T03:03:54;100778.09;;;11.62;62.15
50590;BME280;36547;50.514;30.840;2023-06-05T03:04:57;100779.52;;;11.69;62.11
50590;BME280;36547;50.514;30.840;2023-06-05T03:06:01;100779.38;;;11.72;61.92
50590;BME280;36547;50.514;30.840;2023-06-05T03:07:05;100780.55;;;11.66;62.23
50590;BME280;36547;50.514;30.840;2023-06-05T03:08:08;100780.55;;;11.66;62.16
50590;BME280;36547;50.514;30.840;2023-06-05T03:09:11;100779.52;;;11.69;61.62
50590;BME280;36547;50.514;30.840;2023-06-05T03:10:14;100779.52;;;11.69;61.79
50590;BME280;36547;50.514;30.840;2023-06-05T03:11:18;100782.98;;;11.71;61.78
50590;BME280;36547;50.514;30.840;2023-06-05T03:12:20;100774.92;;;11.73;60.96
50590;BME280;36547;50.514;30.840;2023-06-05T03:13:22;100776.86;;;11.69;61.29
50590;BME280;36547;50.514;30.840;2023-06-05T03:14:25;100775.79;;;11.73;61.89
50590;BME280;36547;50.514;30.840;2023-06-05T03:15:28;100779.38;;;11.72;61.75
50590;BME280;36547;50.514;30.840;2023-06-05T03:16:30;100780.15;;;11.76;61.49
50590;BME280;36547;50.514;30.840;2023-06-05T03:17:32;100777.52;;;11.74;61.66
50590;BME280;36547;50.514;30.840;2023-06-05T03:18:35;100778.34;;;11.76;61.70
50590;BME280;36547;50.514;30.840;2023-06-05T03:19:38;100775.55;;;11.79;61.43
50590;BME280;36547;50.514;30.840;2023-06-05T03:20:41;100777.42;;;11.77;61.50
50590;BME280;36547;50.514;30.840;2023-06-05T03:21:44;100780.88;;;11.79;61.02
50590;BME280;36547;50.514;30.840;2023-06-05T03:22:47;100779.01;;;11.81;61.09
50590;BME280;36547;50.514;30.840;2023-06-05T03:23:49;100779.70;;;11.85;60.82
50590;BME280;36547;50.514;30.840;2023-06-05T03:24:52;100788.42;;;11.88;60.16
50590;BME280;36547;50.514;30.840;2023-06-05T03:25:55;100783.89;;;11.90;60.42
50590;BME280;36547;50.514;30.840;2023-06-05T03:26:58;100781.09;;;11.93;59.88
50590;BME280;36547;50.514;30.840;2023-06-05T03:28:00;100790.64;;;11.97;60.52
50590;BME280;36547;50.514;30.840;2023-06-05T03:29:03;100785.17;;;12.00;60.00
50590;BME280;36547;50.514;30.840;2023-06-05T03:30:07;100786.77;;;12.04;59.60
50590;BME280;36547;50.514;30.840;2023-06-05T03:31:11;100783.89;;;12.09;58.90
50590;BME280;36547;50.514;30.840;2023-06-05T03:32:16;100778.32;;;12.14;58.21
50590;BME280;36547;50.514;30.840;2023-06-05T03:33:19;100782.50;;;12.19;58.15
50590;BME280;36547;50.514;30.840;2023-06-05T03:34:22;100784.95;;;12.24;58.00
50590;BME280;36547;50.514;30.840;2023-06-05T03:35:26;100781.98;;;12.30;58.07
50590;BME280;36547;50.514;30.840;2023-06-05T03:36:30;100780.10;;;12.32;57.81
50590;BME280;36547;50.514;30.840;2023-06-05T03:37:33;100783.42;;;12.37;58.18
50590;BME280;36547;50.514;30.840;2023-06-05T03:38:35;100781.38;;;12.42;58.11
50590;BME280;36547;50.514;30.840;2023-06-05T03:39:37;100784.69;;;12.47;56.87
50590;BME280;36547;50.514;30.840;2023-06-05T03:40:41;100786.27;;;12.51;57.89
50590;BME280;36547;50.514;30.840;2023-06-05T03:41:45;100785.08;;;12.57;57.87
50590;BME280;36547;50.514;30.840;2023-06-05T03:42:48;100779.53;;;12.61;58.40
50590;BME280;36547;50.514;30.840;2023-06-05T03:43:52;100787.31;;;12.66;58.32
50590;BME280;36547;50.514;30.840;2023-06-05T03:44:55;100783.45;;;12.71;58.36
50590;BME280;36547;50.514;30.840;2023-06-05T03:45:57;100787.77;;;12.74;57.00
50590;BME280;36547;50.514;30.840;2023-06-05T03:47:00;100782.22;;;12.79;56.69
50590;BME280;36547;50.514;30.840;2023-06-05T03:48:04;100785.52;;;12.84;55.47
50590;BME280;36547;50.514;30.840;2023-06-05T03:49:09;100789.73;;;12.88;57.36
50590;BME280;36547;50.514;30.840;2023-06-05T03:50:11;100791.31;;;12.92;57.33
50590;BME280;36547;50.514;30.840;2023-06-05T03:51:16;100787.56;;;12.96;55.96
50590;BME280;36547;50.514;30.840;2023-06-05T03:53:34;100784.73;;;13.16;55.53
50590;BME280;36547;50.514;30.840;2023-06-05T03:54:37;100786.92;;;13.08;54.99
50590;BME280;36547;50.514;30.840;2023-06-05T03:55:40;100785.72;;;13.14;55.15
50590;BME280;36547;50.514;30.840;2023-06-05T03:56:42;100777.52;;;13.18;54.66
50590;BME280;36547;50.514;30.840;2023-06-05T03:57:48;100782.55;;;13.24;54.43
50590;BME280;36547;50.514;30.840;2023-06-05T03:58:52;100784.09;;;13.28;54.11
50590;BME280;36547;50.514;30.840;2023-06-05T03:59:54;100787.47;;;13.32;53.99
50590;BME280;36547;50.514;30.840;2023-06-05T04:00:57;100779.22;;;13.36;53.96
50590;BME280;36547;50.514;30.840;2023-06-05T04:01:59;100781.73;;;13.39;53.55
50590;BME280;36547;50.514;30.840;2023-06-05T04:03:03;100787.67;;;13.44;53.46
50590;BME280;36547;50.514;30.840;2023-06-05T04:04:06;100781.23;;;13.49;54.50
50590;BME280;36547;50.514;30.840;2023-06-05T04:05:09;100781.08;;;13.52;53.25
50590;BME280;36547;50.514;30.840;2023-06-05T04:06:11;100779.97;;;13.56;52.52
50590;BME280;36547;50.514;30.840;2023-06-05T04:07:13;100780.56;;;13.61;52.62
50590;BME280;36547;50.514;30.840;2023-06-05T04:08:16;100784.73;;;13.66;51.68
50590;BME280;36547;50.514;30.840;2023-06-05T04:09:18;100787.98;;;13.71;52.74
50590;BME280;36547;50.514;30.840;2023-06-05T04:10:21;100785.08;;;13.76;51.92
50590;BME280;36547;50.514;30.840;2023-06-05T04:11:23;100790.17;;;13.80;51.83
50590;BME280;36547;50.514;30.840;2023-06-05T04:12:26;100786.48;;;13.83;51.81
50590;BME280;36547;50.514;30.840;2023-06-05T04:13:28;100788.02;;;13.87;51.24
50590;BME280;36547;50.514;30.840;2023-06-05T04:14:30;100787.85;;;13.90;51.75
50590;BME280;36547;50.514;30.840;2023-06-05T04:15:33;100788.55;;;13.94;49.84
50590;BME280;36547;50.514;30.840;2023-06-05T04:16:37;100782.97;;;13.98;49.86
50590;BME280;36547;50.514;30.840;2023-06-05T04:17:40;100787.16;;;14.02;50.27
50590;BME280;36547;50.514;30.840;2023-06-05T04:18:43;100782.52;;;14.06;49.98
50590;BME280;36547;50.514;30.840;2023-06-05T04:19:45;100780.46;;;14.11;49.08
50590;BME280;36547;50.514;30.840;2023-06-05T04:20:48;100782.94;;;14.14;48.71
50590;BME280;36547;50.514;30.840;2023-06-05T04:21:52;100782.69;;;14.19;48.62
50590;BME280;36547;50.514;30.840;2023-06-05T04:22:54;100786.92;;;14.23;48.82
50590;BME280;36547;50.514;30.840;2023-06-05T04:23:57;100789.42;;;14.26;48.67
50590;BME280;36547;50.514;30.840;2023-06-05T04:25:00;100789.23;;;14.29;47.52
50590;BME280;36547;50.514;30.840;2023-06-05T04:26:03;100785.44;;;14.33;47.71
50590;BME280;36547;50.514;30.840;2023-06-05T04:27:06;100784.33;;;14.37;47.97
50590;BME280;36547;50.514;30.840;2023-06-05T04:28:08;100783.23;;;14.41;48.29
50590;BME280;36547;50.514;30.840;2023-06-05T04:29:11;100784.77;;;14.45;48.35
50590;BME280;36547;50.514;30.840;2023-06-05T04:30:14;100786.32;;;14.49;48.70
50590;BME280;36547;50.514;30.840;2023-06-05T04:31:17;100786.15;;;14.52;47.96
50590;BME280;36547;50.514;30.840;2023-06-05T04:32:20;100788.57;;;14.57;47.47
50590;BME280;36547;50.514;30.840;2023-06-05T04:33:22;100786.47;;;14.62;48.78
50590;BME280;36547;50.514;30.840;2023-06-05T04:34:25;100782.76;;;14.64;48.12
50590;BME280;36547;50.514;30.840;2023-06-05T04:35:27;100787.08;;;14.67;49.09
50590;BME280;36547;50.514;30.840;2023-06-05T04:36:30;100789.58;;;14.70;49.18
50590;BME280;36547;50.514;30.840;2023-06-05T04:37:33;100790.23;;;14.73;47.65
50590;BME280;36547;50.514;30.840;2023-06-05T04:38:36;100790.06;;;14.76;48.40
50590;BME280;36547;50.514;30.840;2023-06-05T04:39:39;100788.16;;;14.78;48.25
50590;BME280;36547;50.514;30.840;2023-06-05T04:40:42;100792.39;;;14.82;46.42
50590;BME280;36547;50.514;30.840;2023-06-05T04:41:45;100794.89;;;14.85;46.26
50590;BME280;36547;50.514;30.840;2023-06-05T04:42:52;100796.41;;;14.90;46.11
50590;BME280;36547;50.514;30.840;2023-06-05T04:43:54;100790.02;;;14.92;45.78
50590;BME280;36547;50.514;30.840;2023-06-05T04:45:01;100795.11;;;14.97;44.96
50590;BME280;36547;50.514;30.840;2023-06-05T04:46:04;100795.80;;;15.00;45.32
50590;BME280;36547;50.514;30.840;2023-06-05T04:47:07;100785.74;;;15.04;45.77
50590;BME280;36547;50.514;30.840;2023-06-05T04:48:09;100784.61;;;15.08;46.30
50590;BME280;36547;50.514;30.840;2023-06-05T04:49:14;100791.52;;;15.12;45.08
50590;BME280;36547;50.514;30.840;2023-06-05T04:50:26;100794.75;;;15.17;45.49
50590;BME280;36547;50.514;30.840;2023-06-05T04:51:31;100790.95;;;15.21;45.73
50590;BME280;36547;50.514;30.840;2023-06-05T04:52:34;100793.36;;;15.26;45.92
50590;BME280;36547;50.514;30.840;2023-06-05T04:53:37;100794.04;;;15.29;45.96
50590;BME280;36547;50.514;30.840;2023-06-05T04:54:39;100796.41;;;15.34;45.87
50590;BME280;36547;50.514;30.840;2023-06-05T04:55:42;100794.51;;;15.36;45.98
50590;BME280;36547;50.514;30.840;2023-06-05T04:56:44;100795.19;;;15.39;45.57
50590;BME280;36547;50.514;30.840;2023-06-05T04:57:47;100786.11;;;15.42;45.96
50590;BME280;36547;50.514;30.840;2023-06-05T04:58:49;100791.16;;;15.46;45.24
50590;BME280;36547;50.514;30.840;2023-06-05T04:59:52;100793.66;;;15.49;45.43
50590;BME280;36547;50.514;30.840;2023-06-05T05:00:54;100791.66;;;15.53;45.04
50590;BME280;36547;50.514;30.840;2023-06-05T05:01:56;100795.91;;;15.57;45.25
50590;BME280;36547;50.514;30.840;2023-06-05T05:02:59;100793.02;;;15.60;44.74
50590;BME280;36547;50.514;30.840;2023-06-05T05:04:01;100793.69;;;15.64;45.17
50590;BME280;36547;50.514;30.840;2023-06-05T05:05:05;100800.59;;;15.68;44.87
50590;BME280;36547;50.514;30.840;2023-06-05T05:06:08;100795.05;;;15.71;44.76
50590;BME280;36547;50.514;30.840;2023-06-05T05:07:11;100794.83;;;15.74;45.09
50590;BME280;36547;50.514;30.840;2023-06-05T05:08:13;100798.19;;;15.77;45.01
50590;BME280;36547;50.514;30.840;2023-06-05T05:09:16;100788.91;;;15.83;45.76
50590;BME280;36547;50.514;30.840;2023-06-05T05:10:18;100789.68;;;15.85;44.25
50590;BME280;36547;50.514;30.840;2023-06-05T05:11:21;100797.50;;;15.88;44.70
50590;BME280;36547;50.514;30.840;2023-06-05T05:12:25;100793.67;;;15.92;44.56
50590;BME280;36547;50.514;30.840;2023-06-05T05:13:28;100795.21;;;15.96;45.30
50590;BME280;36547;50.514;30.840;2023-06-05T05:14:31;100793.20;;;16.00;45.38
50590;BME280;36547;50.514;30.840;2023-06-05T05:15:33;100797.30;;;16.05;46.15
50590;BME280;36547;50.514;30.840;2023-06-05T05:16:36;100793.56;;;16.08;44.80
50590;BME280;36547;50.514;30.840;2023-06-05T05:17:40;100797.88;;;16.10;45.13
50590;BME280;36547;50.514;30.840;2023-06-05T05:18:43;100796.82;;;16.13;44.71
50590;BME280;36547;50.514;30.840;2023-06-05T05:19:46;100794.91;;;16.15;44.87
50590;BME280;36547;50.514;30.840;2023-06-05T05:20:48;100789.31;;;16.18;45.22
50590;BME280;36547;50.514;30.840;2023-06-05T05:21:51;100791.71;;;16.22;45.66
50590;BME280;36547;50.514;30.840;2023-06-05T05:22:53;100796.88;;;16.25;45.32
50590;BME280;36547;50.514;30.840;2023-06-05T05:23:55;100799.28;;;16.30;45.36
50590;BME280;36547;50.514;30.840;2023-06-05T05:24:58;100794.55;;;16.34;45.27
50590;BME280;36547;50.514;30.840;2023-06-05T05:26:01;100799.72;;;16.37;45.73
50590;BME280;36547;50.514;30.840;2023-06-05T05:27:04;100801.25;;;16.41;45.97
50590;BME280;36547;50.514;30.840;2023-06-05T05:28:06;100801.05;;;16.44;45.71
50590;BME280;36547;50.514;30.840;2023-06-05T05:29:09;100797.19;;;16.48;45.06
50590;BME280;36547;50.514;30.840;2023-06-05T05:30:13;100802.36;;;16.51;45.22
50590;BME280;36547;50.514;30.840;2023-06-05T05:31:15;100800.24;;;16.56;46.00
50590;BME280;36547;50.514;30.840;2023-06-05T05:32:17;100803.46;;;16.61;45.59